Aviation Digital Data Service (ADDS)

Output produced by TAFs form (0517 UTC 28 April 2015)
found at http://www.aviationweather.gov/adds/tafs/
 
KRIC 280125Z 2801/2824 32009KT P6SM SCT080 
     FM280600 34007KT P6SM SKC 
     FM281400 34012G19KT P6SM SCT250 
     FM282100 33009KT P6SM SCT250